Time;durP1;ratioP1;P1;durP2;ratioP2;P2;SDS_P1;SDS_P2;PMS_P1;PMS_P2;Temp;Humidity;BMP_temperature;BMP_pressure;BME280_temperature;BME280_humidity;BME280_pressure;Samples;Min_cycle;Max_cycle;Signal;HPM_P1;HPM_P2
2021/11/28 00:00:06;;;;;;;62.10;32.38;;;;;;;;;;5053264;28;20025;-59
2021/11/28 00:02:34;;;;;;;59.55;31.17;;;;;;;;;;5038896;28;20021;-60
2021/11/28 00:05:01;;;;;;;60.65;31.88;;;;;;;;;;5049909;28;20025;-60
2021/11/28 00:10:12;;;;;;;68.60;32.75;;;;;;;;;;5053169;28;20152;-59
2021/11/28 00:12:41;;;;;;;66.32;32.70;;;;;;;;;;5054141;28;20028;-59
2021/11/28 00:15:09;;;;;;;61.22;31.55;;;;;;;;;;5052698;28;20020;-59
2021/11/28 00:17:35;;;;;;;66.55;34.05;;;;;;;;;;5053341;28;20111;-60
2021/11/28 00:20:02;;;;;;;66.10;34.25;;;;;;;;;;5053067;28;20385;-60
2021/11/28 00:22:28;;;;;;;63.73;34.37;;;;;;;;;;5053402;28;20617;-60
2021/11/28 00:24:54;;;;;;;69.03;33.42;;;;;;;;;;5050997;28;20060;-59
2021/11/28 00:27:20;;;;;;;68.78;35.58;;;;;;;;;;5052086;28;20029;-59
2021/11/28 00:29:46;;;;;;;68.45;33.72;;;;;;;;;;5053811;28;20106;-60
2021/11/28 00:32:13;;;;;;;64.03;31.10;;;;;;;;;;5052444;28;20390;-60
2021/11/28 00:34:39;;;;;;;66.85;32.97;;;;;;;;;;5051971;28;20049;-60
2021/11/28 00:37:05;;;;;;;56.90;28.52;;;;;;;;;;5036885;28;20045;-60
2021/11/28 00:39:32;;;;;;;57.87;26.97;;;;;;;;;;5033617;28;20018;-60
2021/11/28 00:42:00;;;;;;;60.13;27.63;;;;;;;;;;5047961;28;20110;-60
2021/11/28 00:44:26;;;;;;;55.90;26.43;;;9.40;99.90;;;;;;5053399;28;20029;-59
2021/11/28 00:46:51;;;;;;;46.78;24.48;;;9.30;99.70;;;;;;5052323;28;20101;-60
2021/11/28 00:49:21;;;;;;;55.90;26.77;;;9.20;99.80;;;;;;5050099;28;20426;-60
2021/11/28 00:51:49;;;;;;;50.30;25.20;;;9.30;99.90;;;;;;5052179;28;20021;-60
2021/11/28 00:54:17;;;;;;;49.25;25.50;;;9.10;99.90;;;;;;5053276;28;20031;-59
2021/11/28 00:56:43;;;;;;;50.43;25.17;;;9.30;98.10;;;;;;5039918;28;20464;-59
2021/11/28 00:59:09;;;;;;;45.43;23.97;;;9.20;97.90;;;;;;5033265;28;20025;-60
2021/11/28 01:01:35;;;;;;;48.13;24.33;;;9.20;99.50;;;;;;5044227;28;20039;-60
2021/11/28 01:04:02;;;;;;;42.37;23.00;;;9.20;99.20;;;;;;5053103;28;20020;-59
2021/11/28 01:06:28;;;;;;;39.70;20.73;;;9.30;98.40;;;;;;5052337;28;20594;-60
2021/11/28 01:08:54;;;;;;;41.30;19.90;;;9.20;98.90;;;;;;5051840;28;20032;-60
2021/11/28 01:11:23;;;;;;;35.00;18.80;;;9.00;98.40;;;;;;5052001;28;20029;-60
2021/11/28 01:13:50;;;;;;;37.73;18.07;;;9.20;97.80;;;;;;5052076;28;20017;-60
2021/11/28 01:16:16;;;;;;;34.65;17.90;;;9.20;97.40;;;;;;5040482;28;20040;-60
2021/11/28 01:18:41;;;;;;;35.50;18.90;;;9.20;95.90;;;;;;5053012;28;20382;-60
2021/11/28 01:21:07;;;;;;;33.47;17.80;;;9.20;95.60;;;;;;5052531;28;20032;-60
2021/11/28 01:23:34;;;;;;;34.93;17.53;;;9.30;95.60;;;;;;5053032;28;20029;-60
2021/11/28 01:25:59;;;;;;;29.90;16.50;;;9.20;95.60;;;;;;5051928;28;20088;-60
2021/11/28 01:28:26;;;;;;;34.77;17.40;;;9.20;95.00;;;;;;5052928;28;20045;-60
2021/11/28 01:30:52;;;;;;;31.13;16.87;;;9.20;95.60;;;;;;5055529;28;20025;-59
2021/11/28 01:33:17;;;;;;;28.13;16.07;;;9.10;95.20;;;;;;5056857;28;20060;-59
2021/11/28 01:35:43;;;;;;;30.90;16.07;;;9.10;95.40;;;;;;5055952;28;20037;-60
2021/11/28 01:38:09;;;;;;;32.43;16.83;;;9.30;95.50;;;;;;5056159;28;20127;-60
2021/11/28 01:40:35;;;;;;;29.87;17.00;;;9.40;95.60;;;;;;5049196;28;20028;-60
2021/11/28 01:43:05;;;;;;;31.33;16.93;;;9.20;95.60;;;;;;5056896;28;20499;-60
2021/11/28 01:45:32;;;;;;;35.47;17.80;;;9.20;95.70;;;;;;5055772;28;20364;-60
2021/11/28 01:48:01;;;;;;;30.37;17.57;;;9.20;95.70;;;;;;5036799;28;20079;-60
2021/11/28 01:50:29;;;;;;;34.37;18.07;;;9.30;95.80;;;;;;5036752;28;20022;-60
2021/11/28 01:52:54;;;;;;;34.90;19.80;;;9.20;96.30;;;;;;5056238;28;20028;-60
2021/11/28 01:55:23;;;;;;;43.27;22.53;;;9.20;96.10;;;;;;5056731;28;20036;-60
2021/11/28 01:57:50;;;;;;;39.93;21.07;;;9.20;96.10;;;;;;5055403;28;20055;-60
2021/11/28 02:00:19;;;;;;;44.97;23.00;;;9.20;96.30;;;;;;5056798;28;20474;-60
2021/11/28 02:02:46;;;;;;;46.60;24.20;;;9.20;96.50;;;;;;5044259;28;20037;-60
2021/11/28 02:05:14;;;;;;;49.83;24.87;;;9.20;96.60;;;;;;5056694;28;20381;-60
2021/11/28 02:07:40;;;;;;;56.07;27.63;;;9.20;96.30;;;;;;5055312;28;20029;-60
2021/11/28 02:10:07;;;;;;;49.53;27.43;;;9.20;96.50;;;;;;5056399;28;20083;-60
2021/11/28 02:12:32;;;;;;;55.83;30.10;;;9.20;96.60;;;;;;5055506;28;20048;-60
2021/11/28 02:15:00;;;;;;;61.03;32.60;;;9.30;96.60;;;;;;5044397;28;20383;-59
2021/11/28 02:17:26;;;;;;;66.97;32.97;;;9.20;96.60;;;;;;5050906;28;20044;-60
2021/11/28 02:19:52;;;;;;;61.03;32.63;;;9.20;96.50;;;;;;5056232;28;20013;-60
2021/11/28 02:22:18;;;;;;;59.67;31.90;;;9.20;96.70;;;;;;5055507;28;20102;-60
2021/11/28 02:24:43;;;;;;;63.00;32.20;;;9.30;96.80;;;;;;5056253;28;20105;-60
2021/11/28 02:27:09;;;;;;;65.10;33.03;;;9.30;96.50;;;;;;5055416;28;20039;-60
2021/11/28 02:29:39;;;;;;;64.40;34.88;;;9.30;96.40;;;;;;5056312;28;20094;-60
2021/11/28 02:32:05;;;;;;;62.80;32.97;;;9.10;96.40;;;;;;5053104;28;20099;-60
2021/11/28 02:34:30;;;;;;;63.10;32.40;;;9.30;96.40;;;;;;5054460;28;20188;-59
2021/11/28 02:36:56;;;;;;;64.73;34.53;;;9.30;96.70;;;;;;5064566;28;20439;-59
2021/11/28 02:39:22;;;;;;;60.87;32.03;;;9.30;96.90;;;;;;5056145;28;20021;-60
2021/11/28 02:41:48;;;;;;;62.67;33.20;;;9.30;96.60;;;;;;5053884;28;20036;-60
2021/11/28 02:44:16;;;;;;;59.63;30.90;;;9.40;96.70;;;;;;5056019;28;20478;-59
2021/11/28 02:46:42;;;;;;;61.23;32.80;;;9.40;96.20;;;;;;5053417;28;20478;-60
2021/11/28 02:49:08;;;;;;;70.77;34.30;;;9.40;96.80;;;;;;5055634;28;20102;-60
2021/11/28 02:51:35;;;;;;;63.57;32.57;;;9.40;96.90;;;;;;5054505;28;20037;-60
2021/11/28 02:54:02;;;;;;;66.97;34.53;;;9.20;96.80;;;;;;5055633;28;20025;-59
2021/11/28 02:56:28;;;;;;;77.10;39.13;;;8.90;97.40;;;;;;5054734;28;20037;-58
2021/11/28 02:58:54;;;;;;;45.20;21.70;;;;;;;;;;5053136;28;20525;-59
2021/11/28 03:01:22;;;;;;;26.50;14.87;;;8.20;99.90;;;;;;5054266;28;20064;-59
2021/11/28 03:03:50;;;;;;;12.47;7.03;;;8.00;99.90;;;;;;5055379;28;20436;-59
2021/11/28 03:06:16;;;;;;;11.43;6.73;;;;;;;;;;5054235;28;20029;-58
2021/11/28 03:08:42;;;;;;;13.13;5.90;;;7.20;90.80;;;;;;5055411;28;20044;-59
2021/11/28 03:11:10;;;;;;;7.87;3.80;;;7.40;94.10;;;;;;5054304;28;20043;-59
2021/11/28 03:13:39;;;;;;;4.47;2.33;;;7.30;92.10;;;;;;5055258;28;20056;-59
2021/11/28 03:16:08;;;;;;;3.67;1.37;;;7.40;90.30;;;;;;5054316;28;20068;-59
2021/11/28 03:18:35;;;;;;;1.27;0.47;;;;;;;;;;5055127;28;20029;-59
2021/11/28 03:21:04;;;;;;;0.97;0.53;;;7.10;91.70;;;;;;5054058;28;20044;-59
2021/11/28 03:23:31;;;;;;;0.60;0.27;;;7.20;92.90;;;;;;5055170;28;20064;-59
2021/11/28 03:26:23;;;;;;;0.47;0.10;;;7.30;88.50;;;;;;5053022;28;20032;-59
2021/11/28 03:28:52;;;;;;;0.17;0.03;;;7.30;89.30;;;;;;5034026;28;20041;-60
2021/11/28 03:31:18;;;;;;;0.20;0.00;;;7.30;86.90;;;;;;5037222;28;20034;-59
2021/11/28 03:33:45;;;;;;;0.70;0.00;;;7.30;82.60;;;;;;5054703;28;20060;-59
2021/11/28 03:36:13;;;;;;;0.57;0.00;;;7.10;83.30;;;;;;5053323;28;20090;-59
2021/11/28 03:38:40;;;;;;;0.20;0.00;;;7.00;84.50;;;;;;5054357;28;20032;-59
2021/11/28 03:41:07;;;;;;;0.33;0.00;;;7.30;87.40;;;;;;5049709;28;20033;-59
2021/11/28 03:43:33;;;;;;;0.20;0.00;;;7.30;85.80;;;;;;5053794;28;20024;-60
2021/11/28 03:45:58;;;;;;;0.20;0.20;;;7.30;84.10;;;;;;5053816;28;20025;-60
2021/11/28 03:48:24;;;;;;;0.00;0.00;;;7.10;85.60;;;;;;5054278;28;20025;-60
2021/11/28 03:50:50;;;;;;;0.30;0.10;;;7.00;86.90;;;;;;5053245;28;20406;-59
2021/11/28 03:53:15;;;;;;;0.13;0.10;;;7.20;87.80;;;;;;5054436;28;20029;-59
2021/11/28 03:55:42;;;;;;;0.40;0.13;;;7.20;87.30;;;;;;5053840;28;20091;-59
2021/11/28 03:58:08;;;;;;;0.30;0.10;;;7.20;87.30;;;;;;5054436;28;20071;-59
2021/11/28 04:00:34;;;;;;;0.03;0.03;;;7.00;86.40;;;;;;5053608;28;20061;-59
2021/11/28 04:03:00;;;;;;;1.67;0.20;;;7.00;89.20;;;;;;5051855;28;20158;-59
2021/11/28 04:05:26;;;;;;;0.40;0.10;;;7.30;88.90;;;;;;5053032;28;20033;-60
2021/11/28 04:07:52;;;;;;;1.80;0.10;;;7.30;85.10;;;;;;5054299;28;20025;-60
2021/11/28 04:10:17;;;;;;;0.30;0.00;;;7.40;87.70;;;;;;5053395;28;20029;-59
2021/11/28 04:12:43;;;;;;;0.10;0.03;;;7.50;88.50;;;;;;5054031;28;20109;-60
2021/11/28 04:15:10;;;;;;;1.03;0.30;;;7.60;87.00;;;;;;5052882;28;20155;-59
2021/11/28 04:17:36;;;;;;;0.27;0.10;;;7.60;87.30;;;;;;5033982;28;20045;-58
2021/11/28 04:20:03;;;;;;;0.40;0.10;;;7.70;86.90;;;;;;5036276;28;20159;-59
2021/11/28 04:22:28;;;;;;;0.03;0.00;;;7.90;86.20;;;;;;5052026;28;20086;-59
2021/11/28 04:24:54;;;;;;;0.10;0.10;;;7.90;84.50;;;;;;5052037;28;20033;-59
2021/11/28 04:27:20;;;;;;;0.10;0.10;;;7.90;84.90;;;;;;5052979;28;20032;-57
2021/11/28 04:29:46;;;;;;;0.13;0.10;;;8.00;84.90;;;;;;5052738;28;20025;-59
2021/11/28 04:32:12;;;;;;;0.50;0.33;;;8.10;84.70;;;;;;5053354;28;20029;-59
2021/11/28 04:34:37;;;;;;;0.27;0.23;;;8.00;83.00;;;;;;5053286;28;20103;-59
2021/11/28 04:37:03;;;;;;;0.47;0.33;;;8.10;83.80;;;;;;5052368;28;20399;-59
2021/11/28 04:39:29;;;;;;;0.20;0.20;;;8.00;81.30;;;;;;5052250;28;20422;-59
2021/11/28 04:41:54;;;;;;;0.53;0.30;;;8.00;82.20;;;;;;5051477;28;20025;-59
2021/11/28 04:44:23;;;;;;;0.40;0.20;;;8.00;82.50;;;;;;5052139;28;20029;-59
2021/11/28 04:46:49;;;;;;;0.30;0.30;;;7.80;80.00;;;;;;5052364;28;20072;-58
2021/11/28 04:49:14;;;;;;;0.30;0.10;;;7.60;79.70;;;;;;5053296;28;20053;-59
2021/11/28 04:51:40;;;;;;;0.53;0.33;;;7.70;83.40;;;;;;5052362;28;20510;-59
2021/11/28 04:54:06;;;;;;;0.23;0.00;;;7.80;82.00;;;;;;5053309;28;20078;-60
2021/11/28 04:56:32;;;;;;;0.40;0.20;;;7.60;80.90;;;;;;5039171;28;20119;-59
2021/11/28 04:58:57;;;;;;;0.53;0.23;;;7.70;82.30;;;;;;5033281;28;20454;-59
2021/11/28 05:01:25;;;;;;;0.40;0.20;;;7.70;82.80;;;;;;5045014;28;20086;-59
2021/11/28 05:03:50;;;;;;;1.93;0.33;;;7.80;82.60;;;;;;5052752;28;20126;-60
2021/11/28 05:06:17;;;;;;;1.03;0.37;;;7.70;82.10;;;;;;5051858;28;20053;-60
2021/11/28 05:08:43;;;;;;;1.10;0.50;;;7.50;81.30;;;;;;5053305;28;20040;-60
2021/11/28 05:11:08;;;;;;;0.73;0.50;;;7.60;81.30;;;;;;5051903;28;20036;-59
2021/11/28 05:13:34;;;;;;;0.60;0.33;;;7.60;81.10;;;;;;5053025;28;20025;-59
2021/11/28 05:15:59;;;;;;;0.60;0.30;;;7.60;82.70;;;;;;5051680;28;20013;-59
2021/11/28 05:18:25;;;;;;;0.20;0.10;;;7.70;82.90;;;;;;5052900;28;20454;-59
2021/11/28 05:20:50;;;;;;;1.70;0.20;;;7.80;82.60;;;;;;5044919;28;20026;-59
2021/11/28 05:23:17;;;;;;;0.10;0.10;;;7.70;81.90;;;;;;5032889;28;20025;-59
2021/11/28 05:25:43;;;;;;;0.43;0.10;;;7.60;82.00;;;;;;5033116;28;20109;-59
2021/11/28 05:28:10;;;;;;;1.03;0.00;;;7.60;82.00;;;;;;5033010;28;20108;-58
2021/11/28 05:30:36;;;;;;;0.90;0.50;;;7.70;80.50;;;;;;5043538;28;20027;-59
2021/11/28 05:33:02;;;;;;;0.30;0.20;;;7.70;78.10;;;;;;5051616;28;20410;-59
2021/11/28 05:35:28;;;;;;;0.20;0.13;;;7.60;80.60;;;;;;5051649;28;20040;-60
2021/11/28 05:37:54;;;;;;;0.10;0.00;;;7.60;80.10;;;;;;5051436;28;20040;-59
2021/11/28 05:40:20;;;;;;;0.33;0.10;;;7.70;80.80;;;;;;5048530;28;20095;-59
2021/11/28 05:42:48;;;;;;;0.10;0.00;;;7.60;79.80;;;;;;5032502;28;20060;-59
2021/11/28 05:45:15;;;;;;;0.10;0.10;;;7.50;78.70;;;;;;5032658;28;20036;-59
2021/11/28 05:47:40;;;;;;;0.20;0.10;;;7.70;81.20;;;;;;5052622;28;20022;-59
2021/11/28 05:50:06;;;;;;;0.93;0.00;;;7.70;79.80;;;;;;5052665;28;20075;-60
2021/11/28 05:52:33;;;;;;;0.13;0.00;;;7.60;78.20;;;;;;5051950;28;20386;-60
2021/11/28 05:54:59;;;;;;;0.00;0.00;;;7.60;78.00;;;;;;5052596;28;20025;-60
2021/11/28 05:57:24;;;;;;;0.00;0.00;;;7.40;77.10;;;;;;5050265;28;20044;-59
2021/11/28 05:59:50;;;;;;;1.90;0.00;;;7.40;78.30;;;;;;5051712;28;20032;-59
2021/11/28 06:02:15;;;;;;;0.23;0.10;;;7.20;77.40;;;;;;5049416;28;20120;-59
2021/11/28 06:04:41;;;;;;;0.20;0.10;;;7.20;77.30;;;;;;5052505;28;20455;-58
2021/11/28 06:07:07;;;;;;;0.10;0.00;;;7.40;79.20;;;;;;5051358;28;20029;-59
2021/11/28 06:09:32;;;;;;;0.00;0.00;;;7.40;77.90;;;;;;5052459;28;20522;-59
2021/11/28 06:11:58;;;;;;;0.10;0.00;;;7.30;78.10;;;;;;5038056;28;20064;-59
2021/11/28 06:14:24;;;;;;;1.03;0.00;;;7.40;78.90;;;;;;5032463;28;20087;-59
2021/11/28 06:16:50;;;;;;;0.03;0.00;;;7.50;77.60;;;;;;5045326;28;20404;-59
2021/11/28 06:19:16;;;;;;;0.00;0.00;;;7.60;75.00;;;;;;5056287;28;20054;-59
2021/11/28 06:21:41;;;;;;;0.10;0.10;;;7.60;77.30;;;;;;5055223;28;20051;-57
2021/11/28 06:24:07;;;;;;;0.43;0.00;;;7.50;77.60;;;;;;5055151;28;20025;-59
2021/11/28 06:26:33;;;;;;;0.87;0.10;;;7.40;76.00;;;;;;5055023;28;20067;-59
2021/11/28 06:28:58;;;;;;;0.27;0.10;;;7.50;77.70;;;;;;5056135;28;20037;-59
2021/11/28 06:31:24;;;;;;;0.30;0.10;;;7.70;77.90;;;;;;5053847;28;20065;-59
2021/11/28 06:33:50;;;;;;;0.20;0.10;;;7.70;77.70;;;;;;5055572;28;20045;-59
2021/11/28 06:36:16;;;;;;;0.23;0.10;;;7.50;77.80;;;;;;5054635;28;20048;-59
2021/11/28 06:38:45;;;;;;;0.40;0.07;;;7.50;77.20;;;;;;5055762;28;20025;-59
2021/11/28 06:41:10;;;;;;;1.70;0.00;;;7.50;74.00;;;;;;5070025;28;20037;-59
2021/11/28 06:43:36;;;;;;;0.40;0.20;;;7.50;76.30;;;;;;5054389;28;20032;-58
2021/11/28 06:46:02;;;;;;;0.27;0.00;;;7.60;78.30;;;;;;5054473;28;20450;-59
2021/11/28 06:48:28;;;;;;;0.27;0.00;;;7.60;77.70;;;;;;5055500;28;20032;-59
2021/11/28 06:50:54;;;;;;;0.10;0.03;;;7.60;75.70;;;;;;5053950;28;20053;-58
2021/11/28 06:53:20;;;;;;;0.83;0.10;;;7.50;75.80;;;;;;5056065;28;20110;-59
2021/11/28 06:55:45;;;;;;;0.10;0.03;;;7.60;77.10;;;;;;5054323;28;20597;-59
2021/11/28 06:58:11;;;;;;;0.43;0.20;;;7.70;78.10;;;;;;5054362;28;20048;-59
2021/11/28 07:00:37;;;;;;;0.30;0.20;;;7.60;76.00;;;;;;5049565;28;20195;-59
2021/11/28 07:03:03;;;;;;;0.40;0.10;;;7.50;74.80;;;;;;5055144;28;20037;-59
2021/11/28 07:05:29;;;;;;;0.03;0.00;;;7.70;76.30;;;;;;5054006;28;20032;-59
2021/11/28 07:07:54;;;;;;;0.07;0.00;;;7.70;74.40;;;;;;5054458;28;20033;-59
2021/11/28 07:10:20;;;;;;;0.33;0.17;;;7.90;75.10;;;;;;5055161;28;20025;-60
2021/11/28 07:12:46;;;;;;;3.30;0.20;;;7.80;76.40;;;;;;5054560;28;20327;-59
2021/11/28 07:15:12;;;;;;;0.40;0.20;;;7.80;75.80;;;;;;5054012;28;20382;-59
2021/11/28 07:17:38;;;;;;;0.30;0.23;;;7.80;75.10;;;;;;5053350;28;20114;-60
2021/11/28 07:20:06;;;;;;;0.23;0.20;;;7.70;76.60;;;;;;5053746;28;20382;-60
2021/11/28 07:22:33;;;;;;;0.20;0.10;;;7.50;75.50;;;;;;5053693;28;20392;-59
2021/11/28 07:25:00;;;;;;;1.20;0.10;;;7.40;75.40;;;;;;5054887;28;20048;-60
2021/11/28 07:27:25;;;;;;;0.53;0.20;;;7.40;75.60;;;;;;5053736;28;20033;-60
2021/11/28 07:29:51;;;;;;;0.20;0.20;;;7.60;75.90;;;;;;5054490;28;20440;-60
2021/11/28 07:32:16;;;;;;;0.03;0.03;;;7.60;75.40;;;;;;5053628;28;20033;-59
2021/11/28 07:34:42;;;;;;;0.30;0.30;;;7.60;74.40;;;;;;5054481;28;20048;-60
2021/11/28 07:37:08;;;;;;;0.30;0.20;;;7.70;74.50;;;;;;5053548;28;20146;-60
2021/11/28 07:39:33;;;;;;;0.43;0.40;;;7.70;75.50;;;;;;5054578;28;20021;-60
2021/11/28 07:41:59;;;;;;;0.27;0.20;;;7.80;73.40;;;;;;5052938;28;20033;-59
2021/11/28 07:44:25;;;;;;;0.43;0.23;;;7.80;75.40;;;;;;5054589;28;20057;-59
2021/11/28 07:46:51;;;;;;;1.97;0.17;;;7.90;74.90;;;;;;5053331;28;20470;-59
2021/11/28 07:49:17;;;;;;;0.77;0.10;;;8.00;75.20;;;;;;5054433;28;20127;-59
2021/11/28 07:51:42;;;;;;;1.10;0.20;;;8.00;73.30;;;;;;5053689;28;20108;-60
2021/11/28 07:54:08;;;;;;;1.77;0.30;;;8.10;74.00;;;;;;5054321;28;20037;-60
2021/11/28 07:56:34;;;;;;;0.20;0.20;;;8.10;72.50;;;;;;5053417;28;20106;-60
2021/11/28 07:59:00;;;;;;;1.50;0.30;;;8.20;73.70;;;;;;5054011;28;20032;-60
2021/11/28 08:01:25;;;;;;;1.03;0.20;;;8.20;73.10;;;;;;5053189;28;20039;-60
2021/11/28 08:03:51;;;;;;;1.60;0.40;;;8.30;72.90;;;;;;5053457;28;20123;-60
2021/11/28 08:06:17;;;;;;;0.27;0.10;;;8.40;73.40;;;;;;5053188;28;20064;-60
2021/11/28 08:08:43;;;;;;;0.30;0.20;;;8.30;70.40;;;;;;5054002;28;20024;-59
2021/11/28 08:11:09;;;;;;;0.40;0.20;;;8.30;70.00;;;;;;5050746;28;20057;-60
2021/11/28 08:13:35;;;;;;;1.53;0.40;;;8.30;70.90;;;;;;5053461;28;20056;-60
2021/11/28 08:16:00;;;;;;;0.90;0.33;;;8.20;71.60;;;;;;5050680;28;20071;-60
2021/11/28 08:18:26;;;;;;;1.90;0.50;;;8.20;71.70;;;;;;5052399;28;20035;-60
2021/11/28 08:20:52;;;;;;;0.40;0.40;;;8.00;71.00;;;;;;5052866;28;20034;-60
2021/11/28 08:23:18;;;;;;;0.70;0.20;;;8.10;70.80;;;;;;5052473;28;20037;-60
2021/11/28 08:25:43;;;;;;;0.23;0.17;;;8.30;71.50;;;;;;5053707;28;20025;-59
2021/11/28 08:28:09;;;;;;;0.30;0.20;;;8.40;69.50;;;;;;5052802;28;20024;-60
2021/11/28 08:30:36;;;;;;;0.87;0.30;;;8.20;69.70;;;;;;5053584;28;20029;-61
2021/11/28 08:33:03;;;;;;;0.87;0.50;;;8.20;71.30;;;;;;5051208;28;20048;-60
2021/11/28 08:35:29;;;;;;;0.77;0.30;;;8.30;70.20;;;;;;5052725;28;20091;-59
2021/11/28 08:37:56;;;;;;;4.07;0.97;;;8.30;71.50;;;;;;5052278;28;20033;-59
2021/11/28 08:40:22;;;;;;;0.87;0.57;;;8.10;69.90;;;;;;5052710;28;20178;-60
2021/11/28 08:42:48;;;;;;;0.47;0.40;;;8.10;71.60;;;;;;5052428;28;20029;-60
2021/11/28 08:45:14;;;;;;;1.80;0.70;;;8.10;71.20;;;;;;5053305;28;20032;-60
2021/11/28 08:47:40;;;;;;;0.50;0.40;;;8.10;71.20;;;;;;5052361;28;20124;-60
2021/11/28 08:50:08;;;;;;;0.33;0.33;;;8.10;70.80;;;;;;5053538;28;20438;-60
2021/11/28 08:52:34;;;;;;;1.57;0.60;;;8.20;70.10;;;;;;5052232;28;20029;-60
2021/11/28 08:55:01;;;;;;;0.70;0.70;;;8.40;70.60;;;;;;5053095;28;20578;-59
2021/11/28 08:57:26;;;;;;;2.50;0.80;;;8.30;69.70;;;;;;5041706;28;20045;-59
2021/11/28 08:59:52;;;;;;;0.70;0.50;;;8.20;69.30;;;;;;5040155;28;20421;-59
2021/11/28 09:02:18;;;;;;;2.73;0.90;;;8.10;71.10;;;;;;5052242;28;20454;-59
2021/11/28 09:04:45;;;;;;;0.83;0.60;;;8.00;70.50;;;;;;5052911;28;20021;-59
2021/11/28 09:07:10;;;;;;;1.30;0.63;;;8.20;71.80;;;;;;5049501;28;20053;-58
2021/11/28 09:09:36;;;;;;;0.50;0.50;;;8.10;70.00;;;;;;5051281;28;20060;-60
2021/11/28 09:12:03;;;;;;;0.90;0.80;;;8.10;71.50;;;;;;5051118;28;20536;-59
2021/11/28 09:14:29;;;;;;;0.90;0.70;;;8.10;71.60;;;;;;5052436;28;20387;-60
2021/11/28 09:16:55;;;;;;;1.57;0.60;;;8.10;71.10;;;;;;5045632;28;20029;-60
2021/11/28 09:19:46;;;;;;;1.17;0.50;;;7.90;69.50;;;;;;5032287;28;20033;-60
2021/11/28 09:22:22;;;;;;;1.60;0.43;;;7.90;67.90;;;;;;5040639;28;20378;-60
2021/11/28 09:24:48;;;;;;;1.33;0.80;;;7.80;66.60;;;;;;5051903;28;20108;-60
2021/11/28 09:27:14;;;;;;;0.50;0.50;;;7.90;68.30;;;;;;5051764;28;20391;-60
2021/11/28 09:29:43;;;;;;;0.80;0.63;;;8.00;69.70;;;;;;5052809;28;20021;-60
2021/11/28 09:32:10;;;;;;;1.60;0.90;;;8.00;67.40;;;;;;5051971;28;20106;-60
2021/11/28 09:34:36;;;;;;;0.67;0.67;;;8.10;68.50;;;;;;5049519;28;20403;-60
2021/11/28 09:37:02;;;;;;;1.73;0.97;;;8.10;65.60;;;;;;5035519;28;20128;-60
2021/11/28 09:39:28;;;;;;;1.00;0.50;;;8.20;66.30;;;;;;5032998;28;20105;-60
2021/11/28 09:41:59;;;;;;;1.90;1.13;;;8.30;66.30;;;;;;5037610;28;20029;-59
2021/11/28 09:44:28;;;;;;;0.83;0.70;;;8.40;64.20;;;;;;5052659;28;20475;-60
2021/11/28 09:46:55;;;;;;;1.40;0.67;;;8.40;66.20;;;;;;5051453;28;20025;-60
2021/11/28 09:49:25;;;;;;;0.70;0.67;;;8.50;65.60;;;;;;5052567;28;20053;-60
2021/11/28 09:51:53;;;;;;;0.93;0.70;;;8.40;63.00;;;;;;5053900;28;20025;-60
2021/11/28 09:54:19;;;;;;;0.83;0.60;;;8.50;65.10;;;;;;5056639;28;20500;-60
2021/11/28 09:56:45;;;;;;;2.20;0.90;;;8.70;66.70;;;;;;5055344;28;20060;-59
2021/11/28 09:59:12;;;;;;;1.20;1.10;;;8.80;64.00;;;;;;5056412;28;20056;-60
2021/11/28 10:01:39;;;;;;;0.80;0.80;;;9.00;64.30;;;;;;5055557;28;20028;-60
2021/11/28 10:04:06;;;;;;;0.87;0.47;;;9.20;67.00;;;;;;5055384;28;20032;-59
2021/11/28 10:06:33;;;;;;;2.30;0.57;;;9.50;67.40;;;;;;5055342;28;20110;-59
2021/11/28 10:09:06;;;;;;;1.10;0.70;;;9.60;66.70;;;;;;5036207;28;20021;-60
2021/11/28 10:12:00;;;;;;;3.43;1.00;;;9.70;65.30;;;;;;5040873;28;20036;-60
2021/11/28 10:14:26;;;;;;;0.80;0.80;;;9.80;62.20;;;;;;5055789;28;20017;-60
2021/11/28 10:16:52;;;;;;;0.93;0.70;;;9.60;60.70;;;;;;5050957;28;20049;-60
2021/11/28 10:19:17;;;;;;;0.90;0.80;;;9.80;61.10;;;;;;5036179;28;20021;-60
2021/11/28 10:21:43;;;;;;;1.03;0.70;;;9.70;60.50;;;;;;5035817;28;20030;-60
2021/11/28 10:24:14;;;;;;;1.00;0.60;;;9.60;60.70;;;;;;5035745;28;20057;-60
2021/11/28 10:27:05;;;;;;;1.23;0.50;;;9.60;60.90;;;;;;5046354;28;20040;-60
2021/11/28 10:29:40;;;;;;;1.13;0.60;;;9.90;59.30;;;;;;5056458;28;20021;-60
2021/11/28 10:32:10;;;;;;;;;;;9.60;55.40;;;;;;5051624;28;20424;-60
2021/11/28 10:34:47;;;;;;;2.27;0.90;;;9.60;58.70;;;;;;5051370;28;20290;-60
2021/11/28 10:37:16;;;;;;;1.17;1.07;;;9.60;53.90;;;;;;5054281;28;20033;-60
2021/11/28 10:39:43;;;;;;;2.93;0.77;;;9.70;57.10;;;;;;5054689;28;20025;-60
2021/11/28 10:42:22;;;;;;;0.90;0.60;;;9.80;59.40;;;;;;5054436;28;20083;-59
2021/11/28 10:45:01;;;;;;;0.70;0.70;;;10.00;57.90;;;;;;5054686;28;20059;-59
2021/11/28 10:47:54;;;;;;;1.00;0.90;;;9.90;53.80;;;;;;5050104;28;20033;-59
2021/11/28 10:50:25;;;;;;;2.20;0.87;;;9.80;54.70;;;;;;5053180;28;20049;-59
2021/11/28 10:53:11;;;;;;;2.15;1.35;;;9.80;57.20;;;;;;5045154;28;20437;-60
2021/11/28 10:55:42;;;;;;;1.40;1.30;;;10.00;58.70;;;;;;5035630;28;20021;-59
2021/11/28 10:58:17;;;;;;;0.90;0.63;;;10.10;55.50;;;;;;5047167;28;20041;-60
2021/11/28 11:00:45;;;;;;;1.48;0.75;;;10.10;55.80;;;;;;5055680;28;20017;-60
2021/11/28 11:03:20;;;;;;;1.27;0.70;;;9.80;54.40;;;;;;5053347;28;20508;-59
2021/11/28 11:05:49;;;;;;;0.60;0.40;;;10.00;57.00;;;;;;5054645;28;20706;-59
2021/11/28 11:08:16;;;;;;;1.15;0.52;;;10.10;55.40;;;;;;5053150;28;20102;-60
2021/11/28 11:10:46;;;;;;;1.35;0.98;;;10.00;52.10;;;;;;5054282;28;20045;-60
2021/11/28 11:13:19;;;;;;;0.98;0.80;;;10.00;53.60;;;;;;5054156;28;20029;-60
2021/11/28 11:15:51;;;;;;;1.00;0.80;;;10.20;55.60;;;;;;5055052;28;20021;-60
2021/11/28 11:18:19;;;;;;;0.80;0.77;;;10.30;56.30;;;;;;5040957;28;20040;-60
2021/11/28 11:21:00;;;;;;;1.10;1.00;;;10.40;69.70;;;;;;5035053;28;20030;-60
2021/11/28 11:23:44;;;;;;;1.87;1.00;;;10.40;70.00;;;;;;5048042;28;20032;-61
2021/11/28 11:26:25;;;;;;;1.53;1.10;;;10.30;69.60;;;;;;5054946;28;20079;-60
2021/11/28 11:29:14;;;;;;;1.57;0.57;;;10.40;70.50;;;;;;5038020;28;20029;-60
2021/11/28 11:31:54;;;;;;;1.30;0.70;;;10.50;60.30;;;;;;5035008;28;20490;-60
2021/11/28 11:34:22;;;;;;;2.83;0.70;;;10.10;59.40;;;;;;5048047;28;20525;-60
2021/11/28 11:36:54;;;;;;;1.00;0.70;;;10.10;62.60;;;;;;5053721;28;20040;-59
2021/11/28 11:39:22;;;;;;;1.13;0.30;;;10.20;62.20;;;;;;5034910;28;20040;-59
2021/11/28 11:41:48;;;;;;;0.70;0.40;;;10.10;62.80;;;;;;5034743;28;20017;-60
2021/11/28 11:44:16;;;;;;;0.83;0.53;;;10.20;61.50;;;;;;5034754;28;20030;-59
2021/11/28 11:46:46;;;;;;;0.70;0.50;;;10.10;59.40;;;;;;5034537;28;20032;-59
2021/11/28 11:49:15;;;;;;;1.27;0.55;;;10.30;60.50;;;;;;5052837;28;20037;-60
2021/11/28 11:51:42;;;;;;;0.60;0.40;;;10.20;60.20;;;;;;5054365;28;20079;-60
2021/11/28 11:54:26;;;;;;;1.70;0.40;;;10.20;63.10;;;;;;5036099;28;20091;-60
2021/11/28 11:57:00;;;;;;;0.38;0.28;;;10.10;59.50;;;;;;5034350;28;20065;-59
2021/11/28 11:59:39;;;;;;;0.82;0.70;;;10.30;61.90;;;;;;5034457;28;20025;-60
2021/11/28 12:02:06;;;;;;;0.40;0.40;;;10.30;62.30;;;;;;5043692;28;20037;-59
2021/11/28 12:04:46;;;;;;;2.25;0.50;;;10.40;62.90;;;;;;5034168;28;20021;-60
2021/11/28 12:07:12;;;;;;;0.90;0.60;;;10.20;63.20;;;;;;5035461;28;20025;-60
2021/11/28 12:09:39;;;;;;;1.67;0.90;;;10.20;60.00;;;;;;5052832;28;20482;-60
2021/11/28 12:12:12;;;;;;;1.50;0.87;;;10.10;62.80;;;;;;5052349;28;20028;-60
2021/11/28 12:14:57;;;;;;;1.13;0.68;;;10.10;63.00;;;;;;5031577;28;20022;-60
2021/11/28 12:17:36;;;;;;;0.85;0.70;;;9.90;64.10;;;;;;5041028;28;20067;-60
2021/11/28 12:20:02;;;;;;;1.10;0.90;;;10.00;64.20;;;;;;5033752;28;20487;-60
2021/11/28 12:22:43;;;;;;;1.43;0.43;;;9.90;63.60;;;;;;5047938;28;20025;-60
2021/11/28 12:25:44;;;;;;;0.77;0.63;;;10.00;64.20;;;;;;5033966;28;20033;-60
2021/11/28 12:28:29;;;;;;;0.93;0.60;;;9.70;63.10;;;;;;5042029;28;20051;-60
2021/11/28 12:31:03;;;;;;;1.73;0.80;;;9.90;61.10;;;;;;5052723;28;20025;-60
2021/11/28 12:34:02;;;;;;;1.13;0.60;;;9.80;64.00;;;;;;5052245;28;20057;-60
2021/11/28 12:36:33;;;;;;;0.97;0.83;;;9.80;60.40;;;;;;5041185;28;20033;-60
2021/11/28 12:39:00;;;;;;;1.77;0.70;;;9.60;60.00;;;;;;5052406;28;20032;-60
2021/11/28 12:41:55;;;;;;;1.40;0.70;;;9.60;62.60;;;;;;5052169;28;20386;-61
2021/11/28 12:44:25;;;;;;;3.72;0.85;;;9.90;62.60;;;;;;5051270;28;20343;-60
2021/11/28 12:47:00;;;;;;;0.70;0.60;;;10.00;60.30;;;;;;5053404;28;20032;-60
2021/11/28 12:49:33;;;;;;;1.03;0.50;;;9.70;58.80;;;;;;5051034;28;20029;-60
2021/11/28 12:52:17;;;;;;;1.33;0.77;;;9.70;59.90;;;;;;5053209;28;20029;-60
2021/11/28 12:55:05;;;;;;;2.57;0.60;;;9.80;60.80;;;;;;5039987;28;20033;-60
2021/11/28 12:57:33;;;;;;;0.50;0.30;;;9.70;59.40;;;;;;5051201;28;20041;-60
2021/11/28 13:00:24;;;;;;;0.40;0.40;;;9.70;57.90;;;;;;5053065;28;20171;-59
2021/11/28 13:02:56;;;;;;;0.50;0.20;;;9.80;59.80;;;;;;5050406;28;20033;-59
2021/11/28 13:05:31;;;;;;;0.83;0.20;;;9.80;60.60;;;;;;5044048;28;20037;-59